Time;durP1;ratioP1;P1;durP2;ratioP2;P2;SDS_P1;SDS_P2;PMS_P1;PMS_P2;Temp;Humidity;BMP_temperature;BMP_pressure;BME280_temperature;BME280_humidity;BME280_pressure;Samples;Min_cycle;Max_cycle;Signal;HPM_P1;HPM_P2
2022/10/16 00:00:40;;;;;;;3.08;2.30;;;15.20;99.90;;;;;;4121466;28;20493;-70
2022/10/16 00:02:40;;;;;;;6.05;2.22;;;15.20;99.90;;;;;;4124778;28;20050;-67
2022/10/16 00:04:41;;;;;;;2.50;1.85;;;15.10;99.90;;;;;;4124363;28;20456;-67
2022/10/16 00:06:41;;;;;;;3.30;1.95;;;15.10;99.90;;;;;;4119432;28;20396;-67
2022/10/16 00:08:42;;;;;;;3.35;1.90;;;15.10;99.90;;;;;;4119312;28;20051;-68
2022/10/16 00:10:43;;;;;;;2.90;1.60;;;15.10;99.90;;;;;;4119377;28;20047;-67
2022/10/16 00:12:44;;;;;;;2.08;1.60;;;15.10;99.90;;;;;;4125036;28;20127;-68
2022/10/16 00:14:44;;;;;;;5.35;2.25;;;15.10;99.90;;;;;;4136329;28;20038;-69
2022/10/16 00:16:45;;;;;;;4.43;1.98;;;15.10;99.90;;;;;;4152763;28;20109;-69
2022/10/16 00:18:46;;;;;;;3.35;1.95;;;15.00;99.90;;;;;;4138342;28;20046;-67
2022/10/16 00:20:46;;;;;;;2.45;1.90;;;15.00;99.90;;;;;;4133031;28;20430;-67
2022/10/16 00:22:47;;;;;;;3.17;1.60;;;15.00;99.90;;;;;;4135706;28;20419;-67
2022/10/16 00:24:47;;;;;;;2.97;1.75;;;15.00;99.90;;;;;;4142580;28;20510;-67
2022/10/16 00:26:49;;;;;;;3.45;1.98;;;15.00;99.90;;;;;;4150736;28;20029;-67
2022/10/16 00:28:51;;;;;;;3.45;2.05;;;14.90;99.90;;;;;;4157095;28;20076;-68
2022/10/16 00:30:52;;;;;;;1.98;1.48;;;14.90;99.90;;;;;;4136137;28;20037;-67
2022/10/16 00:32:53;;;;;;;2.90;2.17;;;15.00;99.90;;;;;;4139621;28;20526;-67
2022/10/16 00:34:57;;;;;;;2.85;1.77;;;15.00;99.90;;;;;;4141044;28;20030;-67
2022/10/16 00:36:57;;;;;;;2.95;1.70;;;14.90;99.90;;;;;;4136019;28;20084;-67
2022/10/16 00:39:00;;;;;;;5.93;2.17;;;14.90;99.90;;;;;;4133749;28;20474;-67
2022/10/16 00:41:01;;;;;;;3.13;2.13;;;14.90;99.90;;;;;;4140757;28;20042;-67
2022/10/16 00:43:01;;;;;;;3.95;2.10;;;14.90;99.90;;;;;;4139633;28;20096;-67
2022/10/16 00:45:03;;;;;;;2.63;1.67;;;14.90;99.90;;;;;;4138764;28;20029;-68
2022/10/16 00:47:03;;;;;;;3.40;2.25;;;14.90;99.90;;;;;;4134162;28;20123;-67
2022/10/16 00:49:09;;;;;;;2.97;1.90;;;14.90;99.90;;;;;;4136108;28;20430;-67
2022/10/16 00:51:09;;;;;;;2.17;1.75;;;14.90;99.90;;;;;;4140747;28;20033;-68
2022/10/16 00:53:11;;;;;;;2.65;1.65;;;14.90;99.90;;;;;;4139936;28;20471;-67
2022/10/16 00:55:12;;;;;;;2.20;1.70;;;14.90;99.90;;;;;;4148044;28;20061;-68
2022/10/16 00:57:13;;;;;;;2.83;1.65;;;14.90;99.90;;;;;;4152165;28;20502;-67
2022/10/16 00:59:21;;;;;;;3.60;1.55;;;14.90;99.90;;;;;;4126086;28;20448;-67
2022/10/16 01:01:22;;;;;;;2.25;1.70;;;14.90;99.90;;;;;;4143111;28;20038;-66
2022/10/16 01:03:32;;;;;;;1.90;1.67;;;14.90;99.90;;;;;;4134890;28;20040;-68
2022/10/16 01:05:53;;;;;;;2.28;1.58;;;14.90;99.90;;;;;;4137495;28;20037;-65
2022/10/16 01:08:08;;;;;;;3.95;1.98;;;14.90;99.90;;;;;;4136974;28;20026;-66
2022/10/16 01:10:29;;;;;;;2.88;1.63;;;14.90;99.90;;;;;;4137226;28;20042;-66
2022/10/16 01:12:48;;;;;;;2.10;1.55;;;14.90;99.90;;;;;;4133820;28;20456;-65
2022/10/16 01:14:56;;;;;;;4.45;2.00;;;14.90;99.90;;;;;;4137325;28;20770;-66
2022/10/16 01:17:18;;;;;;;3.67;1.80;;;14.90;99.90;;;;;;4134672;28;20529;-66
2022/10/16 01:19:31;;;;;;;3.20;1.70;;;14.90;99.90;;;;;;4136316;28;20117;-66
2022/10/16 01:21:42;;;;;;;1.65;1.25;;;14.90;99.90;;;;;;4130885;28;20053;-66
2022/10/16 01:24:01;;;;;;;2.10;1.45;;;14.90;99.90;;;;;;4138722;28;20037;-65
2022/10/16 01:26:14;;;;;;;3.42;1.50;;;14.90;99.90;;;;;;4153987;28;20059;-66
2022/10/16 01:28:17;;;;;;;1.63;1.30;;;14.90;99.90;;;;;;4153044;28;20445;-65
2022/10/16 01:30:32;;;;;;;3.22;1.65;;;14.90;99.90;;;;;;4142008;28;20037;-65
2022/10/16 01:32:50;;;;;;;3.22;1.30;;;14.90;99.90;;;;;;4153317;28;20034;-65
2022/10/16 01:35:01;;;;;;;2.58;1.60;;;15.00;99.90;;;;;;4156413;28;20557;-66
2022/10/16 01:37:09;;;;;;;2.63;1.48;;;14.90;99.90;;;;;;4153738;28;20425;-66
2022/10/16 01:39:11;;;;;;;1.60;1.40;;;14.90;99.90;;;;;;4156797;28;20042;-67
2022/10/16 01:41:21;;;;;;;2.65;1.30;;;14.90;99.90;;;;;;4150586;28;20030;-66
2022/10/16 01:43:30;;;;;;;1.50;1.13;;;14.90;99.90;;;;;;4168615;28;20033;-66
2022/10/16 01:45:32;;;;;;;1.48;1.15;;;15.00;99.90;;;;;;4152848;28;20144;-66
2022/10/16 01:47:36;;;;;;;2.28;1.35;;;14.90;99.90;;;;;;4156771;28;20026;-65
2022/10/16 01:49:39;;;;;;;2.25;1.20;;;14.90;99.90;;;;;;4132600;28;20581;-66
2022/10/16 01:51:41;;;;;;;3.50;1.30;;;14.90;99.90;;;;;;4134148;28;20066;-66
2022/10/16 01:53:47;;;;;;;4.57;1.60;;;14.90;99.90;;;;;;4131192;28;20065;-66
2022/10/16 01:55:50;;;;;;;4.68;1.40;;;14.90;99.90;;;;;;4139131;28;20042;-66
2022/10/16 01:57:51;;;;;;;1.95;1.35;;;14.90;99.90;;;;;;4154863;28;20057;-66
2022/10/16 01:59:56;;;;;;;2.58;1.50;;;14.90;99.90;;;;;;4139200;28;20502;-66
2022/10/16 02:02:00;;;;;;;2.20;1.20;;;14.80;99.90;;;;;;4133980;28;20058;-66
2022/10/16 02:04:08;;;;;;;2.85;1.38;;;14.80;99.90;;;;;;4135444;28;20049;-66
2022/10/16 02:06:09;;;;;;;2.90;1.48;;;14.80;99.90;;;;;;4136056;28;20507;-66
2022/10/16 02:08:09;;;;;;;5.15;1.35;;;14.70;99.90;;;;;;4152406;28;20035;-65
2022/10/16 02:10:11;;;;;;;2.85;1.50;;;14.70;99.90;;;;;;4136629;28;20129;-67
2022/10/16 02:12:23;;;;;;;1.90;1.38;;;14.70;99.90;;;;;;4112470;28;20047;-71
2022/10/16 02:14:24;;;;;;;3.70;1.00;;;14.70;99.90;;;;;;4138615;28;20036;-65
2022/10/16 02:16:39;;;;;;;1.42;1.13;;;14.70;99.90;;;;;;4151579;28;20041;-65
2022/10/16 02:18:42;;;;;;;1.30;1.20;;;14.70;99.90;;;;;;4134682;28;20097;-66
2022/10/16 02:20:57;;;;;;;1.40;1.02;;;14.70;99.90;;;;;;4132038;28;20040;-66
2022/10/16 02:22:59;;;;;;;1.83;1.30;;;14.70;99.90;;;;;;4135600;28;20084;-67
2022/10/16 02:25:08;;;;;;;2.08;1.30;;;14.70;99.90;;;;;;4134201;28;20496;-65
2022/10/16 02:27:23;;;;;;;4.03;1.30;;;14.60;99.90;;;;;;4139425;28;20037;-66
2022/10/16 02:29:26;;;;;;;1.52;1.08;;;14.60;99.90;;;;;;4131124;28;20034;-65
2022/10/16 02:31:27;;;;;;;;;;;14.60;99.90;;;;;;4136874;28;20049;-65
2022/10/16 02:33:30;;;;;;;1.67;1.23;;;14.60;99.90;;;;;;4132928;28;20374;-65
2022/10/16 02:35:31;;;;;;;2.30;1.30;;;14.60;99.90;;;;;;4147797;28;20041;-65
2022/10/16 02:37:33;;;;;;;1.63;1.17;;;14.60;99.90;;;;;;4132905;28;20553;-66
2022/10/16 02:39:34;;;;;;;1.40;0.90;;;14.60;99.90;;;;;;4139932;28;20478;-67
2022/10/16 02:41:35;;;;;;;1.30;0.93;;;14.60;99.90;;;;;;4134604;28;20042;-67
2022/10/16 02:43:36;;;;;;;1.42;1.10;;;14.60;99.90;;;;;;4138923;28;20034;-65
2022/10/16 02:45:36;;;;;;;1.33;0.93;;;14.60;99.90;;;;;;4142341;28;20054;-68
2022/10/16 02:47:37;;;;;;;3.38;1.02;;;14.60;99.90;;;;;;4137093;28;20033;-65
2022/10/16 02:49:38;;;;;;;1.15;1.05;;;14.60;99.90;;;;;;4137507;28;20520;-66
2022/10/16 02:51:38;;;;;;;1.63;1.13;;;14.60;99.90;;;;;;4137445;28;20037;-65
2022/10/16 02:53:39;;;;;;;1.42;0.80;;;14.60;99.90;;;;;;4133424;28;20118;-65
2022/10/16 02:55:40;;;;;;;1.98;0.88;;;14.60;99.90;;;;;;4134681;28;20037;-66
2022/10/16 02:57:40;;;;;;;1.77;1.10;;;14.60;99.90;;;;;;4142391;28;20054;-65
2022/10/16 02:59:41;;;;;;;1.85;1.20;;;14.50;99.90;;;;;;4141896;28;20041;-65
2022/10/16 03:01:41;;;;;;;1.92;1.10;;;14.50;99.90;;;;;;4134704;28;20129;-68
2022/10/16 03:03:42;;;;;;;1.58;1.00;;;14.50;99.90;;;;;;4138731;28;20407;-65
2022/10/16 03:05:45;;;;;;;1.33;0.93;;;14.50;99.90;;;;;;4131566;28;20044;-65
2022/10/16 03:07:46;;;;;;;1.27;1.02;;;14.60;99.90;;;;;;4136791;28;20434;-65
2022/10/16 03:09:46;;;;;;;1.10;0.93;;;14.50;99.90;;;;;;4136802;28;20100;-65
2022/10/16 03:11:47;;;;;;;3.53;1.15;;;14.50;99.90;;;;;;4138523;28;20073;-66
2022/10/16 03:13:47;;;;;;;1.13;1.00;;;14.50;99.90;;;;;;4138098;28;20044;-65
2022/10/16 03:15:48;;;;;;;0.98;0.88;;;14.50;99.90;;;;;;4151489;28;20442;-65
2022/10/16 03:17:49;;;;;;;2.25;1.08;;;14.50;99.90;;;;;;4138364;28;20590;-66
2022/10/16 03:19:49;;;;;;;1.70;0.90;;;14.50;99.90;;;;;;4137147;28;20556;-67
2022/10/16 03:21:50;;;;;;;3.10;1.20;;;14.50;99.90;;;;;;4130164;28;20038;-66
2022/10/16 03:23:51;;;;;;;1.55;1.05;;;14.50;99.90;;;;;;4148427;28;20038;-65
2022/10/16 03:25:52;;;;;;;3.20;0.90;;;14.40;99.90;;;;;;4133220;28;20037;-66
2022/10/16 03:27:52;;;;;;;1.25;1.00;;;14.50;99.90;;;;;;4139239;28;20117;-66
2022/10/16 03:29:53;;;;;;;1.10;0.82;;;14.50;99.90;;;;;;4135575;28;20034;-66
2022/10/16 03:31:53;;;;;;;0.93;0.80;;;14.40;99.90;;;;;;4136473;28;20041;-65
2022/10/16 03:33:54;;;;;;;1.10;0.80;;;14.50;99.90;;;;;;4133349;28;20084;-66
2022/10/16 03:35:54;;;;;;;1.90;1.00;;;14.40;99.90;;;;;;4132198;28;20100;-65
2022/10/16 03:37:56;;;;;;;1.98;0.90;;;14.40;99.90;;;;;;4137692;28;20033;-65
2022/10/16 03:39:56;;;;;;;1.48;0.95;;;14.40;99.90;;;;;;4135721;28;20041;-66
2022/10/16 03:41:57;;;;;;;1.65;0.98;;;14.40;99.90;;;;;;4154154;28;20033;-65
2022/10/16 03:43:57;;;;;;;2.25;0.95;;;14.40;99.90;;;;;;4134698;28;20033;-65
2022/10/16 03:45:58;;;;;;;2.15;1.13;;;14.40;99.90;;;;;;4135399;28;20368;-67
2022/10/16 03:47:59;;;;;;;1.73;1.00;;;14.30;99.90;;;;;;4133222;28;20545;-65
2022/10/16 03:50:00;;;;;;;3.45;1.00;;;14.30;99.90;;;;;;4150820;28;20483;-66
2022/10/16 03:52:00;;;;;;;1.50;0.70;;;14.30;99.90;;;;;;4141651;28;20049;-65
2022/10/16 03:54:01;;;;;;;0.80;0.70;;;14.30;99.90;;;;;;4133570;28;20062;-67
2022/10/16 03:56:01;;;;;;;0.98;0.75;;;14.30;99.90;;;;;;4149289;28;20487;-67
2022/10/16 03:58:02;;;;;;;1.52;0.90;;;14.30;99.90;;;;;;4135671;28;20030;-69
2022/10/16 04:00:03;;;;;;;1.83;0.95;;;14.40;99.90;;;;;;4156531;28;20498;-66
2022/10/16 04:02:03;;;;;;;1.55;0.90;;;14.30;99.90;;;;;;4154342;28;20049;-66
2022/10/16 04:04:04;;;;;;;2.78;0.93;;;14.40;99.90;;;;;;4144082;28;20041;-65
2022/10/16 04:06:05;;;;;;;1.30;0.93;;;14.40;99.90;;;;;;4140749;28;20531;-65
2022/10/16 04:08:06;;;;;;;0.95;0.80;;;14.30;99.90;;;;;;4137863;28;20052;-65
2022/10/16 04:10:07;;;;;;;2.25;0.90;;;14.40;99.90;;;;;;4140979;28;20045;-67
2022/10/16 04:12:08;;;;;;;1.05;0.80;;;14.30;99.90;;;;;;4140970;28;20038;-65
2022/10/16 04:14:09;;;;;;;1.90;0.75;;;14.30;99.90;;;;;;4152347;28;20453;-65
2022/10/16 04:16:09;;;;;;;2.70;1.27;;;14.30;99.90;;;;;;4141928;28;20488;-66
2022/10/16 04:18:10;;;;;;;1.00;0.63;;;14.30;99.90;;;;;;4158879;28;20091;-67
2022/10/16 04:20:10;;;;;;;2.90;0.90;;;14.40;99.90;;;;;;4143850;28;20097;-65
2022/10/16 04:22:11;;;;;;;1.58;0.60;;;14.40;99.90;;;;;;4142941;28;20463;-66
2022/10/16 04:24:12;;;;;;;1.80;0.98;;;14.30;99.90;;;;;;4140320;28;20057;-65
2022/10/16 04:26:12;;;;;;;1.70;1.00;;;14.30;99.90;;;;;;4154151;28;20042;-65
2022/10/16 04:28:13;;;;;;;1.42;1.00;;;14.30;99.90;;;;;;4142776;28;20046;-65
2022/10/16 04:30:14;;;;;;;1.75;1.05;;;14.30;99.90;;;;;;4142674;28;20034;-65
2022/10/16 04:32:14;;;;;;;1.75;0.93;;;14.30;99.90;;;;;;4142289;28;20038;-65
2022/10/16 04:34:15;;;;;;;3.42;1.35;;;14.40;99.90;;;;;;4143236;28;20517;-67
2022/10/16 04:36:15;;;;;;;3.70;1.05;;;14.40;99.90;;;;;;4142467;28;20569;-66
2022/10/16 04:38:16;;;;;;;1.02;0.75;;;14.40;99.90;;;;;;4142830;28;20471;-66
2022/10/16 04:40:17;;;;;;;2.28;1.00;;;14.30;99.90;;;;;;4140103;28;20135;-65
2022/10/16 04:42:17;;;;;;;1.30;1.00;;;14.30;99.90;;;;;;4153123;28;20119;-65
2022/10/16 04:44:18;;;;;;;3.97;0.65;;;14.30;99.90;;;;;;4135882;28;20503;-65
2022/10/16 04:46:18;;;;;;;1.70;0.90;;;14.30;99.90;;;;;;4143050;28;20452;-65
2022/10/16 04:48:19;;;;;;;1.02;0.73;;;14.30;99.90;;;;;;4156686;28;20477;-66
2022/10/16 04:50:20;;;;;;;2.63;0.95;;;14.30;99.90;;;;;;4139922;28;20034;-65
2022/10/16 04:52:24;;;;;;;1.50;0.98;;;14.30;99.90;;;;;;4127715;28;20039;-67
2022/10/16 04:54:24;;;;;;;4.63;1.05;;;14.30;99.90;;;;;;4144146;28;20034;-65
2022/10/16 04:56:25;;;;;;;1.52;0.95;;;14.30;99.90;;;;;;4137292;28;20036;-65
2022/10/16 04:58:25;;;;;;;1.15;0.80;;;14.40;99.90;;;;;;4158610;28;20034;-65
2022/10/16 05:00:26;;;;;;;2.00;0.98;;;14.30;99.90;;;;;;4141937;28;20808;-65
2022/10/16 05:02:27;;;;;;;1.85;0.82;;;14.30;99.90;;;;;;4141451;28;20030;-65
2022/10/16 05:04:27;;;;;;;0.75;0.60;;;14.30;99.90;;;;;;4140879;28;20403;-65
2022/10/16 05:06:28;;;;;;;1.05;0.80;;;14.30;99.90;;;;;;4141954;28;20376;-65
2022/10/16 05:08:29;;;;;;;1.10;0.70;;;14.30;99.90;;;;;;4156785;28;20439;-65
2022/10/16 05:10:29;;;;;;;1.05;0.70;;;14.30;99.90;;;;;;4126776;28;21330;-65
2022/10/16 05:12:30;;;;;;;1.05;0.60;;;14.30;99.90;;;;;;4141745;28;20517;-65
2022/10/16 05:14:31;;;;;;;0.65;0.65;;;14.30;99.90;;;;;;4144143;28;20470;-66
2022/10/16 05:16:31;;;;;;;3.42;1.10;;;14.30;99.90;;;;;;4139471;28;20050;-65
2022/10/16 05:18:32;;;;;;;0.70;0.70;;;14.30;99.90;;;;;;4140310;28;20394;-67
2022/10/16 05:20:32;;;;;;;1.13;0.77;;;14.30;99.90;;;;;;4141249;28;20034;-65
2022/10/16 05:22:33;;;;;;;1.20;0.80;;;14.30;99.90;;;;;;4140556;28;20038;-71
2022/10/16 05:24:34;;;;;;;1.17;1.00;;;14.30;99.90;;;;;;4143722;28;20034;-65
2022/10/16 05:26:34;;;;;;;0.98;0.63;;;14.30;99.90;;;;;;4140218;28;20034;-66
2022/10/16 05:28:35;;;;;;;1.15;0.70;;;14.30;99.90;;;;;;4140939;28;20521;-70
2022/10/16 05:30:37;;;;;;;2.92;0.90;;;14.30;99.90;;;;;;4140667;28;20042;-66
2022/10/16 05:32:38;;;;;;;1.13;0.70;;;14.30;99.90;;;;;;4141067;28;20091;-68
2022/10/16 05:34:38;;;;;;;3.72;0.98;;;14.30;99.90;;;;;;4142781;28;20038;-66
2022/10/16 05:36:39;;;;;;;1.23;0.90;;;14.30;99.90;;;;;;4138288;28;20045;-66
2022/10/16 05:38:40;;;;;;;1.77;0.98;;;14.30;99.90;;;;;;4141467;28;20038;-67
2022/10/16 05:40:40;;;;;;;1.15;0.80;;;14.30;99.90;;;;;;4140777;28;20030;-66
2022/10/16 05:42:41;;;;;;;2.10;1.10;;;14.20;99.90;;;;;;4141146;28;20042;-66
2022/10/16 05:44:41;;;;;;;1.55;0.70;;;14.20;99.90;;;;;;4141300;28;20053;-65
2022/10/16 05:46:42;;;;;;;1.25;0.90;;;14.20;99.90;;;;;;4140019;28;20117;-65
2022/10/16 05:48:43;;;;;;;1.27;0.88;;;14.20;99.90;;;;;;4142861;28;20136;-66
2022/10/16 05:50:43;;;;;;;1.17;1.00;;;14.20;99.90;;;;;;4142290;28;20026;-65
2022/10/16 05:52:44;;;;;;;7.78;1.20;;;14.20;99.90;;;;;;4142291;28;20041;-65
2022/10/16 05:54:45;;;;;;;0.80;0.80;;;14.20;99.90;;;;;;4139212;28;20507;-65
2022/10/16 05:56:45;;;;;;;3.17;0.90;;;14.20;99.90;;;;;;4142431;28;20045;-65
2022/10/16 05:58:46;;;;;;;2.60;1.20;;;14.20;99.90;;;;;;4156412;28;20033;-65
2022/10/16 06:01:01;;;;;;;2.85;0.70;;;14.20;99.90;;;;;;4138868;28;20033;-70
2022/10/16 06:03:02;;;;;;;3.58;0.85;;;14.20;99.90;;;;;;4139277;28;20141;-65
2022/10/16 06:05:03;;;;;;;1.08;0.70;;;14.10;99.90;;;;;;4156230;28;20037;-68
2022/10/16 06:07:03;;;;;;;2.83;0.85;;;14.10;99.90;;;;;;4140673;28;20068;-66
2022/10/16 06:09:04;;;;;;;1.58;0.93;;;14.10;99.90;;;;;;4140963;28;20140;-67
2022/10/16 06:11:08;;;;;;;1.40;0.90;;;14.10;99.90;;;;;;4137128;28;20046;-65
2022/10/16 06:13:08;;;;;;;1.27;0.88;;;14.20;99.90;;;;;;4139929;28;20427;-65
2022/10/16 06:15:09;;;;;;;1.75;1.00;;;14.20;99.90;;;;;;4138120;28;20034;-67
2022/10/16 06:17:09;;;;;;;0.90;0.80;;;14.20;99.90;;;;;;4139762;28;20122;-67
2022/10/16 06:19:10;;;;;;;0.93;0.80;;;14.20;99.90;;;;;;4138796;28;20034;-64
2022/10/16 06:21:16;;;;;;;1.15;0.85;;;14.10;99.90;;;;;;4142946;28;20080;-65
2022/10/16 06:23:16;;;;;;;3.08;1.20;;;14.20;99.90;;;;;;4140616;28;20153;-64
2022/10/16 06:25:17;;;;;;;1.98;0.93;;;14.10;99.90;;;;;;4141557;28;20487;-64
2022/10/16 06:27:17;;;;;;;1.55;1.00;;;14.10;99.90;;;;;;4138034;28;20590;-66
2022/10/16 06:29:18;;;;;;;2.67;1.15;;;14.10;99.90;;;;;;4139625;28;20038;-65
2022/10/16 06:31:19;;;;;;;1.90;1.30;;;14.20;99.90;;;;;;4141051;28;20112;-66
2022/10/16 06:33:19;;;;;;;2.60;1.20;;;14.10;99.90;;;;;;4138498;28;20465;-66
2022/10/16 06:35:20;;;;;;;5.15;1.05;;;14.10;99.90;;;;;;4138523;28;20050;-65
2022/10/16 06:37:21;;;;;;;1.33;1.08;;;14.10;99.90;;;;;;4141924;28;20041;-66
2022/10/16 06:39:22;;;;;;;1.40;1.08;;;14.10;99.90;;;;;;4140695;28;20037;-66
2022/10/16 06:41:23;;;;;;;1.48;1.15;;;14.10;99.90;;;;;;4138281;28;20030;-66
2022/10/16 06:43:24;;;;;;;2.83;0.95;;;14.10;99.90;;;;;;4142715;28;20504;-65
2022/10/16 06:45:25;;;;;;;2.85;1.08;;;14.10;99.90;;;;;;4151166;28;20593;-66
2022/10/16 06:47:26;;;;;;;1.58;1.10;;;14.20;99.90;;;;;;4130371;28;20081;-65
2022/10/16 06:49:28;;;;;;;2.50;1.23;;;14.20;99.90;;;;;;4139709;28;20026;-65
2022/10/16 06:51:29;;;;;;;2.67;1.40;;;14.20;99.90;;;;;;4145504;28;20111;-66
2022/10/16 06:53:32;;;;;;;2.33;1.10;;;14.20;99.90;;;;;;4139539;28;20037;-67
2022/10/16 06:55:32;;;;;;;;;;;14.10;99.90;;;;;;4141583;28;20034;-67
2022/10/16 06:57:33;;;;;;;2.35;1.33;;;14.20;99.90;;;;;;4137107;28;19992;-66
2022/10/16 06:59:34;;;;;;;1.33;1.23;;;14.10;99.90;;;;;;4139097;28;20034;-66
2022/10/16 07:01:34;;;;;;;2.63;1.10;;;14.10;99.90;;;;;;4138066;28;20026;-66
2022/10/16 07:03:39;;;;;;;1.77;1.42;;;14.20;99.90;;;;;;4141434;28;20033;-67
2022/10/16 07:05:41;;;;;;;4.03;1.33;;;14.20;99.90;;;;;;4142285;28;20329;-66
2022/10/16 07:07:42;;;;;;;3.35;1.60;;;14.20;99.90;;;;;;4153850;28;20026;-65
2022/10/16 07:09:42;;;;;;;2.83;1.38;;;14.10;99.90;;;;;;4141696;28;20406;-66
2022/10/16 07:11:43;;;;;;;1.67;1.20;;;14.10;99.90;;;;;;4140670;28;20407;-65
2022/10/16 07:13:45;;;;;;;2.45;1.40;;;14.20;99.90;;;;;;4143231;28;20033;-65
2022/10/16 07:15:46;;;;;;;1.27;1.10;;;14.20;99.90;;;;;;4137573;28;20030;-66
2022/10/16 07:17:46;;;;;;;1.90;1.30;;;14.20;99.90;;;;;;4141115;28;20079;-66
2022/10/16 07:19:47;;;;;;;1.63;1.50;;;14.20;99.90;;;;;;4132846;28;20542;-65
2022/10/16 07:21:47;;;;;;;1.30;1.17;;;14.20;99.90;;;;;;4133872;28;20509;-65
2022/10/16 07:23:52;;;;;;;2.70;1.48;;;14.20;99.90;;;;;;4159903;28;21643;-66
2022/10/16 07:25:54;;;;;;;2.40;1.10;;;14.30;99.90;;;;;;4146217;28;20030;-64
2022/10/16 07:27:55;;;;;;;1.75;1.35;;;14.30;99.90;;;;;;4155634;28;20672;-65
2022/10/16 07:29:56;;;;;;;3.63;1.45;;;14.40;99.90;;;;;;4162177;28;20486;-66
2022/10/16 07:31:57;;;;;;;1.42;1.27;;;14.40;99.90;;;;;;4140502;28;20125;-65
2022/10/16 07:33:59;;;;;;;3.38;1.80;;;14.50;99.90;;;;;;4144317;28;20034;-65
2022/10/16 07:36:00;;;;;;;3.90;1.38;;;14.60;99.90;;;;;;4139814;28;20103;-65
2022/10/16 07:38:00;;;;;;;3.42;1.70;;;14.80;99.90;;;;;;4160797;28;20061;-65
2022/10/16 07:40:01;;;;;;;3.03;1.38;;;15.00;99.90;;;;;;4147326;28;20143;-68
2022/10/16 07:42:01;;;;;;;0.95;0.90;;;15.20;99.90;;;;;;4133555;28;20061;-65
2022/10/16 07:44:03;;;;;;;2.00;1.00;;;15.40;99.90;;;;;;4119101;28;20525;-67
2022/10/16 07:46:04;;;;;;;0.90;0.90;;;15.70;99.90;;;;;;4124733;28;20510;-65
2022/10/16 07:48:04;;;;;;;1.05;0.85;;;15.90;99.90;;;;;;4121602;28;20378;-67
2022/10/16 07:50:05;;;;;;;1.48;1.02;;;16.30;99.90;;;;;;4120041;28;20096;-69
2022/10/16 07:52:06;;;;;;;5.10;1.25;;;16.70;99.90;;;;;;4136886;28;20046;-65
2022/10/16 07:54:08;;;;;;;1.48;0.95;;;17.00;99.90;;;;;;4125034;28;20034;-65
2022/10/16 07:56:09;;;;;;;1.27;0.75;;;17.30;99.90;;;;;;4137071;28;20434;-65
2022/10/16 07:58:10;;;;;;;2.25;0.93;;;17.60;99.90;;;;;;4121912;28;20037;-66
2022/10/16 08:00:13;;;;;;;0.85;0.80;;;17.90;99.90;;;;;;4122095;28;20552;-66
2022/10/16 08:02:14;;;;;;;1.42;0.80;;;18.10;99.90;;;;;;4123770;28;20034;-66
2022/10/16 08:04:14;;;;;;;1.27;0.82;;;18.30;99.90;;;;;;4121792;28;20041;-65
2022/10/16 08:06:16;;;;;;;2.17;0.93;;;18.50;99.90;;;;;;4123019;28;20696;-66
2022/10/16 08:08:17;;;;;;;1.90;0.90;;;18.80;99.90;;;;;;4123813;28;20034;-66
2022/10/16 08:10:21;;;;;;;1.50;0.80;;;19.10;99.90;;;;;;4120839;28;20046;-67
2022/10/16 08:12:21;;;;;;;1.17;0.85;;;19.30;99.90;;;;;;4121643;28;20074;-67
2022/10/16 08:14:22;;;;;;;1.33;0.85;;;19.50;99.90;;;;;;4119927;28;20411;-66
2022/10/16 08:16:22;;;;;;;1.27;0.80;;;19.60;99.90;;;;;;4122387;28;20075;-66
2022/10/16 08:18:23;;;;;;;1.23;0.73;;;19.90;99.90;;;;;;4119063;28;20057;-67
2022/10/16 08:20:24;;;;;;;0.88;0.63;;;20.10;99.90;;;;;;4117595;28;20046;-66
2022/10/16 08:22:25;;;;;;;2.47;1.08;;;20.20;99.90;;;;;;4136461;28;20037;-67
2022/10/16 08:24:26;;;;;;;0.93;0.50;;;20.30;99.90;;;;;;4126008;28;20066;-66
2022/10/16 08:26:27;;;;;;;1.50;0.70;;;20.30;99.90;;;;;;4120092;28;20030;-66
2022/10/16 08:28:27;;;;;;;1.35;0.70;;;20.60;99.90;;;;;;4128664;28;20958;-66
2022/10/16 08:30:28;;;;;;;1.60;0.70;;;20.70;99.90;;;;;;4138347;28;20526;-66
2022/10/16 08:32:29;;;;;;;2.70;0.98;;;20.60;99.90;;;;;;4141969;28;20061;-66
2022/10/16 08:34:29;;;;;;;1.25;0.50;;;20.70;99.90;;;;;;4139914;28;20062;-66
2022/10/16 08:36:30;;;;;;;2.58;1.10;;;20.70;99.90;;;;;;4152937;28;20510;-66
2022/10/16 08:38:30;;;;;;;1.48;0.73;;;20.60;99.90;;;;;;4142075;28;20085;-66
2022/10/16 08:40:33;;;;;;;2.30;0.90;;;20.70;99.90;;;;;;4140089;28;20574;-66
2022/10/16 08:42:39;;;;;;;2.67;1.08;;;20.50;99.90;;;;;;4143515;28;20513;-66
2022/10/16 08:44:54;;;;;;;1.25;0.50;;;20.40;99.90;;;;;;4158174;28;20044;-66
2022/10/16 08:47:22;;;;;;;3.40;0.60;;;20.30;99.90;;;;;;4139239;28;20038;-66
2022/10/16 08:49:24;;;;;;;1.52;0.80;;;20.20;99.90;;;;;;4140121;28;20026;-66
2022/10/16 08:51:32;;;;;;;2.67;0.80;;;20.20;99.90;;;;;;4140409;28;20056;-67
2022/10/16 08:53:52;;;;;;;1.65;0.63;;;20.20;99.90;;;;;;4156763;28;20092;-67
2022/10/16 08:55:54;;;;;;;1.38;0.90;;;20.00;99.90;;;;;;4155620;28;20184;-66
2022/10/16 08:57:54;;;;;;;1.20;0.75;;;20.00;99.90;;;;;;4141761;28;20034;-66
2022/10/16 09:00:11;;;;;;;3.50;0.85;;;19.90;99.90;;;;;;4137051;28;20045;-66
2022/10/16 09:02:33;;;;;;;2.22;0.80;;;19.90;99.90;;;;;;4143293;28;20038;-66
2022/10/16 09:05:03;;;;;;;1.43;0.93;;;19.80;99.90;;;;;;4138523;28;20041;-66
2022/10/16 09:07:20;;;;;;;2.53;0.88;;;19.80;99.90;;;;;;4136121;28;20269;-66
2022/10/16 09:09:58;;;;;;;2.90;0.90;;;19.90;99.90;;;;;;4147229;28;20129;-66
2022/10/16 09:12:07;;;;;;;2.65;0.95;;;19.90;99.90;;;;;;4123869;28;20069;-67
2022/10/16 09:14:38;;;;;;;2.75;0.75;;;19.90;99.90;;;;;;4142985;28;20082;-66
2022/10/16 09:16:48;;;;;;;2.90;0.90;;;19.80;99.90;;;;;;4123468;28;20121;-66
2022/10/16 09:19:02;;;;;;;4.05;0.90;;;19.80;99.90;;;;;;4127890;28;20033;-66
2022/10/16 09:21:20;;;;;;;3.53;1.00;;;19.80;99.90;;;;;;4140618;28;20117;-66
2022/10/16 09:23:30;;;;;;;1.85;0.70;;;19.90;99.90;;;;;;4124737;28;20100;-65
2022/10/16 09:25:32;;;;;;;2.72;1.00;;;19.80;99.90;;;;;;4124483;28;20061;-65
2022/10/16 09:27:32;;;;;;;3.92;1.13;;;19.90;99.90;;;;;;4141366;28;20041;-65
2022/10/16 09:29:33;;;;;;;2.67;0.75;;;19.90;99.90;;;;;;4125469;28;20039;-65
2022/10/16 09:31:36;;;;;;;2.85;0.88;;;19.80;99.90;;;;;;4140473;28;20040;-66
2022/10/16 09:33:39;;;;;;;2.58;0.95;;;19.90;99.90;;;;;;4125504;28;20034;-66
2022/10/16 09:35:47;;;;;;;4.78;1.17;;;19.90;99.90;;;;;;4124629;28;20100;-65
2022/10/16 09:37:50;;;;;;;2.17;1.20;;;19.90;99.90;;;;;;4140132;28;20463;-66
2022/10/16 09:39:53;;;;;;;1.42;0.65;;;19.70;99.90;;;;;;4139891;28;20037;-66
2022/10/16 09:41:54;;;;;;;;;;;19.70;99.90;;;;;;4126556;28;20065;-65
2022/10/16 09:44:01;;;;;;;1.42;0.68;;;19.70;99.90;;;;;;4125441;28;20004;-66
2022/10/16 09:46:05;;;;;;;2.58;0.90;;;19.70;99.90;;;;;;4121458;28;20038;-66
2022/10/16 09:48:13;;;;;;;2.05;0.63;;;19.80;99.90;;;;;;4135639;28;20038;-66
2022/10/16 09:50:26;;;;;;;2.17;0.90;;;19.80;99.90;;;;;;4142451;28;20026;-66
2022/10/16 09:52:26;;;;;;;1.90;0.90;;;19.80;99.90;;;;;;4138387;28;20049;-65
2022/10/16 09:54:27;;;;;;;2.53;1.00;;;19.80;99.90;;;;;;4140180;28;20031;-65
2022/10/16 09:56:33;;;;;;;4.05;0.90;;;19.80;99.90;;;;;;4154627;28;20124;-65
2022/10/16 09:58:34;;;;;;;2.15;0.90;;;19.80;99.90;;;;;;4156205;28;20107;-65
2022/10/16 10:00:34;;;;;;;1.85;0.50;;;19.80;99.90;;;;;;4137463;28;20129;-66
2022/10/16 10:02:38;;;;;;;2.03;0.90;;;19.80;99.90;;;;;;4139479;28;20018;-69
2022/10/16 10:04:58;;;;;;;0.45;0.43;;;19.80;99.90;;;;;;4137049;28;20113;-65
2022/10/16 10:06:59;;;;;;;1.63;0.77;;;19.90;99.90;;;;;;4127967;28;20050;-65
2022/10/16 10:09:17;;;;;;;2.33;0.75;;;19.90;99.90;;;;;;4141940;28;20041;-65
2022/10/16 10:11:18;;;;;;;3.08;0.98;;;19.90;99.90;;;;;;4138824;28;20038;-65
2022/10/16 10:13:24;;;;;;;1.35;0.60;;;20.00;99.90;;;;;;4141703;28;20042;-65
2022/10/16 10:15:27;;;;;;;1.73;0.43;;;20.00;99.90;;;;;;4154915;28;20522;-65
2022/10/16 10:17:28;;;;;;;0.90;0.40;;;20.00;99.90;;;;;;4139734;28;20037;-67
2022/10/16 10:19:29;;;;;;;0.98;0.57;;;20.00;99.90;;;;;;4154869;28;20065;-65
2022/10/16 10:21:33;;;;;;;1.02;0.50;;;20.10;99.90;;;;;;4139829;28;20037;-65
2022/10/16 10:23:34;;;;;;;0.55;0.45;;;20.20;99.90;;;;;;4142225;28;20061;-66
2022/10/16 10:25:56;;;;;;;1.73;0.80;;;20.20;99.90;;;;;;4132066;28;20518;-65
2022/10/16 10:28:33;;;;;;;2.22;0.70;;;20.20;99.90;;;;;;4135077;28;20053;-64
2022/10/16 10:31:10;;;;;;;1.65;0.52;;;20.20;99.90;;;;;;4136771;28;20428;-65
2022/10/16 10:33:49;;;;;;;2.10;0.73;;;20.30;99.90;;;;;;4133068;28;20121;-65
2022/10/16 10:35:58;;;;;;;0.85;0.52;;;20.20;99.90;;;;;;4135378;28;20394;-65
2022/10/16 10:38:09;;;;;;;2.15;0.82;;;20.20;99.90;;;;;;4126965;28;20038;-65
2022/10/16 10:40:52;;;;;;;4.25;0.98;;;20.30;99.90;;;;;;4122995;28;20105;-65
2022/10/16 10:43:26;;;;;;;4.30;1.10;;;20.30;99.90;;;;;;4120449;28;20031;-65
2022/10/16 10:45:38;;;;;;;2.28;0.60;;;20.30;99.90;;;;;;4119040;28;20034;-66